sensor_id;sensor_type;location;lat;lon;timestamp;P1;P2;P0
59153;PMS5003;44935;48.944;9.418;2024-01-30T00:02:23;7;5;
59153;PMS5003;44935;48.944;9.418;2024-01-30T00:04:50;6;6;
59153;PMS5003;44935;48.944;9.418;2024-01-30T00:07:16;9;7;
59153;PMS5003;44935;48.944;9.418;2024-01-30T00:09:45;5;5;
59153;PMS5003;44935;48.944;9.418;2024-01-30T00:12:13;9;8;
59153;PMS5003;44935;48.944;9.418;2024-01-30T00:14:41;7;6;
59153;PMS5003;44935;48.944;9.418;2024-01-30T00:17:08;6;6;
59153;PMS5003;44935;48.944;9.418;2024-01-30T00:19:36;7;6;
59153;PMS5003;44935;48.944;9.418;2024-01-30T00:22:03;7;7;
59153;PMS5003;44935;48.944;9.418;2024-01-30T00:24:30;7;7;
59153;PMS5003;44935;48.944;9.418;2024-01-30T00:26:57;8;7;
59153;PMS5003;44935;48.944;9.418;2024-01-30T00:29:24;8;5;
59153;PMS5003;44935;48.944;9.418;2024-01-30T00:31:50;6;6;
59153;PMS5003;44935;48.944;9.418;2024-01-30T00:34:17;6;5;
59153;PMS5003;44935;48.944;9.418;2024-01-30T00:36:44;5;5;
59153;PMS5003;44935;48.944;9.418;2024-01-30T00:39:11;6;4;
59153;PMS5003;44935;48.944;9.418;2024-01-30T00:41:38;4;4;
59153;PMS5003;44935;48.944;9.418;2024-01-30T00:44:05;5;5;
59153;PMS5003;44935;48.944;9.418;2024-01-30T00:46:31;5;5;
59153;PMS5003;44935;48.944;9.418;2024-01-30T00:48:58;5;5;
59153;PMS5003;44935;48.944;9.418;2024-01-30T00:51:25;6;5;
59153;PMS5003;44935;48.944;9.418;2024-01-30T00:53:52;5;5;
59153;PMS5003;44935;48.944;9.418;2024-01-30T00:56:19;7;7;
59153;PMS5003;44935;48.944;9.418;2024-01-30T00:58:46;3;2;
59153;PMS5003;44935;48.944;9.418;2024-01-30T01:01:13;8;4;
59153;PMS5003;44935;48.944;9.418;2024-01-30T01:03:40;6;4;
59153;PMS5003;44935;48.944;9.418;2024-01-30T01:06:07;6;6;
59153;PMS5003;44935;48.944;9.418;2024-01-30T01:08:34;9;8;
59153;PMS5003;44935;48.944;9.418;2024-01-30T01:11:01;9;9;
59153;PMS5003;44935;48.944;9.418;2024-01-30T01:13:29;9;9;
59153;PMS5003;44935;48.944;9.418;2024-01-30T01:15:56;6;4;
59153;PMS5003;44935;48.944;9.418;2024-01-30T01:18:23;5;5;
59153;PMS5003;44935;48.944;9.418;2024-01-30T01:20:49;4;4;
59153;PMS5003;44935;48.944;9.418;2024-01-30T01:23:16;9;7;
59153;PMS5003;44935;48.944;9.418;2024-01-30T01:25:44;9;8;
59153;PMS5003;44935;48.944;9.418;2024-01-30T01:28:11;11;8;
59153;PMS5003;44935;48.944;9.418;2024-01-30T01:30:37;7;7;
59153;PMS5003;44935;48.944;9.418;2024-01-30T01:33:05;6;6;
59153;PMS5003;44935;48.944;9.418;2024-01-30T01:35:32;5;4;
59153;PMS5003;44935;48.944;9.418;2024-01-30T01:37:59;6;5;
59153;PMS5003;44935;48.944;9.418;2024-01-30T01:40:26;8;4;
59153;PMS5003;44935;48.944;9.418;2024-01-30T01:42:54;6;5;
59153;PMS5003;44935;48.944;9.418;2024-01-30T01:45:21;6;6;
59153;PMS5003;44935;48.944;9.418;2024-01-30T01:47:50;7;4;
59153;PMS5003;44935;48.944;9.418;2024-01-30T01:50:18;7;7;
59153;PMS5003;44935;48.944;9.418;2024-01-30T01:52:48;7;4;
59153;PMS5003;44935;48.944;9.418;2024-01-30T01:55:16;5;5;
59153;PMS5003;44935;48.944;9.418;2024-01-30T01:57:47;4;4;
59153;PMS5003;44935;48.944;9.418;2024-01-30T02:00:14;6;4;
59153;PMS5003;44935;48.944;9.418;2024-01-30T02:02:42;8;8;
59153;PMS5003;44935;48.944;9.418;2024-01-30T02:05:12;6;5;
59153;PMS5003;44935;48.944;9.418;2024-01-30T02:07:39;5;4;
59153;PMS5003;44935;48.944;9.418;2024-01-30T02:10:07;8;5;
59153;PMS5003;44935;48.944;9.418;2024-01-30T02:12:35;5;4;
59153;PMS5003;44935;48.944;9.418;2024-01-30T02:15:02;4;4;
59153;PMS5003;44935;48.944;9.418;2024-01-30T02:17:30;8;7;
59153;PMS5003;44935;48.944;9.418;2024-01-30T02:19:57;9;5;
59153;PMS5003;44935;48.944;9.418;2024-01-30T02:22:23;4;3;
59153;PMS5003;44935;48.944;9.418;2024-01-30T02:24:50;6;5;
59153;PMS5003;44935;48.944;9.418;2024-01-30T02:27:17;4;4;
59153;PMS5003;44935;48.944;9.418;2024-01-30T02:29:44;6;5;
59153;PMS5003;44935;48.944;9.418;2024-01-30T02:32:12;6;6;
59153;PMS5003;44935;48.944;9.418;2024-01-30T02:34:39;10;7;
59153;PMS5003;44935;48.944;9.418;2024-01-30T02:37:06;5;3;
59153;PMS5003;44935;48.944;9.418;2024-01-30T02:39:33;4;4;
59153;PMS5003;44935;48.944;9.418;2024-01-30T02:42:00;5;5;
59153;PMS5003;44935;48.944;9.418;2024-01-30T02:44:27;5;5;
59153;PMS5003;44935;48.944;9.418;2024-01-30T02:46:54;5;5;
59153;PMS5003;44935;48.944;9.418;2024-01-30T02:49:21;3;3;
59153;PMS5003;44935;48.944;9.418;2024-01-30T02:51:48;4;4;
59153;PMS5003;44935;48.944;9.418;2024-01-30T02:54:15;3;3;
59153;PMS5003;44935;48.944;9.418;2024-01-30T02:56:42;8;5;
59153;PMS5003;44935;48.944;9.418;2024-01-30T02:59:09;7;5;
59153;PMS5003;44935;48.944;9.418;2024-01-30T03:01:42;2;2;
59153;PMS5003;44935;48.944;9.418;2024-01-30T03:04:09;6;3;
59153;PMS5003;44935;48.944;9.418;2024-01-30T03:06:37;7;5;
59153;PMS5003;44935;48.944;9.418;2024-01-30T03:09:04;3;3;
59153;PMS5003;44935;48.944;9.418;2024-01-30T03:11:31;7;5;
59153;PMS5003;44935;48.944;9.418;2024-01-30T03:13:58;7;5;
59153;PMS5003;44935;48.944;9.418;2024-01-30T03:16:25;4;4;
59153;PMS5003;44935;48.944;9.418;2024-01-30T03:18:52;7;7;
59153;PMS5003;44935;48.944;9.418;2024-01-30T03:21:19;4;4;
59153;PMS5003;44935;48.944;9.418;2024-01-30T03:23:46;4;4;
59153;PMS5003;44935;48.944;9.418;2024-01-30T03:26:13;2;2;
59153;PMS5003;44935;48.944;9.418;2024-01-30T03:28:40;8;6;
59153;PMS5003;44935;48.944;9.418;2024-01-30T03:31:07;6;3;
59153;PMS5003;44935;48.944;9.418;2024-01-30T03:33:34;6;5;
59153;PMS5003;44935;48.944;9.418;2024-01-30T03:36:02;7;6;
59153;PMS5003;44935;48.944;9.418;2024-01-30T03:38:30;6;5;
59153;PMS5003;44935;48.944;9.418;2024-01-30T03:40:57;6;6;
59153;PMS5003;44935;48.944;9.418;2024-01-30T03:43:25;6;4;
59153;PMS5003;44935;48.944;9.418;2024-01-30T03:45:52;4;4;
59153;PMS5003;44935;48.944;9.418;2024-01-30T03:48:19;4;4;
59153;PMS5003;44935;48.944;9.418;2024-01-30T03:50:47;7;4;
59153;PMS5003;44935;48.944;9.418;2024-01-30T03:53:14;5;4;
59153;PMS5003;44935;48.944;9.418;2024-01-30T03:55:42;5;5;
59153;PMS5003;44935;48.944;9.418;2024-01-30T03:58:09;5;5;
59153;PMS5003;44935;48.944;9.418;2024-01-30T04:00:36;4;4;
59153;PMS5003;44935;48.944;9.418;2024-01-30T04:03:03;5;5;
59153;PMS5003;44935;48.944;9.418;2024-01-30T04:05:30;5;5;
59153;PMS5003;44935;48.944;9.418;2024-01-30T04:07:57;8;6;
59153;PMS5003;44935;48.944;9.418;2024-01-30T04:10:25;6;6;
59153;PMS5003;44935;48.944;9.418;2024-01-30T04:12:51;4;4;
59153;PMS5003;44935;48.944;9.418;2024-01-30T04:15:18;5;3;
59153;PMS5003;44935;48.944;9.418;2024-01-30T04:17:45;2;2;
59153;PMS5003;44935;48.944;9.418;2024-01-30T04:20:13;4;4;
59153;PMS5003;44935;48.944;9.418;2024-01-30T04:22:40;7;7;
59153;PMS5003;44935;48.944;9.418;2024-01-30T04:25:08;6;4;
59153;PMS5003;44935;48.944;9.418;2024-01-30T04:27:35;4;4;
59153;PMS5003;44935;48.944;9.418;2024-01-30T04:30:02;3;3;
59153;PMS5003;44935;48.944;9.418;2024-01-30T04:32:29;4;4;
59153;PMS5003;44935;48.944;9.418;2024-01-30T04:34:56;7;7;
59153;PMS5003;44935;48.944;9.418;2024-01-30T04:37:24;8;7;
59153;PMS5003;44935;48.944;9.418;2024-01-30T04:39:50;3;3;
59153;PMS5003;44935;48.944;9.418;2024-01-30T04:42:17;4;4;
59153;PMS5003;44935;48.944;9.418;2024-01-30T04:44:44;6;4;
59153;PMS5003;44935;48.944;9.418;2024-01-30T04:47:11;3;3;
59153;PMS5003;44935;48.944;9.418;2024-01-30T04:49:38;5;5;
59153;PMS5003;44935;48.944;9.418;2024-01-30T04:52:06;11;5;
59153;PMS5003;44935;48.944;9.418;2024-01-30T04:54:33;6;6;
59153;PMS5003;44935;48.944;9.418;2024-01-30T04:57:00;4;4;
59153;PMS5003;44935;48.944;9.418;2024-01-30T04:59:27;4;4;
59153;PMS5003;44935;48.944;9.418;2024-01-30T05:01:54;7;4;
59153;PMS5003;44935;48.944;9.418;2024-01-30T05:04:21;5;3;
59153;PMS5003;44935;48.944;9.418;2024-01-30T05:06:48;5;4;
59153;PMS5003;44935;48.944;9.418;2024-01-30T05:09:15;7;5;
59153;PMS5003;44935;48.944;9.418;2024-01-30T05:11:42;5;5;
59153;PMS5003;44935;48.944;9.418;2024-01-30T05:14:09;5;5;
59153;PMS5003;44935;48.944;9.418;2024-01-30T05:16:36;9;4;
59153;PMS5003;44935;48.944;9.418;2024-01-30T05:19:03;6;6;
59153;PMS5003;44935;48.944;9.418;2024-01-30T05:21:30;4;4;
59153;PMS5003;44935;48.944;9.418;2024-01-30T05:23:57;7;7;
59153;PMS5003;44935;48.944;9.418;2024-01-30T05:26:24;6;5;
59153;PMS5003;44935;48.944;9.418;2024-01-30T05:28:52;6;5;
59153;PMS5003;44935;48.944;9.418;2024-01-30T05:31:19;4;4;
59153;PMS5003;44935;48.944;9.418;2024-01-30T05:33:46;5;4;
59153;PMS5003;44935;48.944;9.418;2024-01-30T05:36:13;4;4;
59153;PMS5003;44935;48.944;9.418;2024-01-30T05:38:39;6;4;
59153;PMS5003;44935;48.944;9.418;2024-01-30T05:41:06;7;6;
59153;PMS5003;44935;48.944;9.418;2024-01-30T05:43:35;3;3;
59153;PMS5003;44935;48.944;9.418;2024-01-30T05:46:02;7;5;
59153;PMS5003;44935;48.944;9.418;2024-01-30T05:48:29;11;6;
59153;PMS5003;44935;48.944;9.418;2024-01-30T05:50:56;4;4;
59153;PMS5003;44935;48.944;9.418;2024-01-30T05:53:22;4;4;
59153;PMS5003;44935;48.944;9.418;2024-01-30T05:55:49;6;4;
59153;PMS5003;44935;48.944;9.418;2024-01-30T05:58:16;7;5;
59153;PMS5003;44935;48.944;9.418;2024-01-30T06:00:43;8;6;
59153;PMS5003;44935;48.944;9.418;2024-01-30T06:03:10;4;4;
59153;PMS5003;44935;48.944;9.418;2024-01-30T06:05:37;4;4;
59153;PMS5003;44935;48.944;9.418;2024-01-30T06:08:04;3;3;
59153;PMS5003;44935;48.944;9.418;2024-01-30T06:10:32;3;3;
59153;PMS5003;44935;48.944;9.418;2024-01-30T06:12:59;7;6;
59153;PMS5003;44935;48.944;9.418;2024-01-30T06:15:25;4;3;
59153;PMS5003;44935;48.944;9.418;2024-01-30T06:17:52;5;5;
59153;PMS5003;44935;48.944;9.418;2024-01-30T06:20:19;4;4;
59153;PMS5003;44935;48.944;9.418;2024-01-30T06:22:46;5;5;
59153;PMS5003;44935;48.944;9.418;2024-01-30T06:25:13;6;5;
59153;PMS5003;44935;48.944;9.418;2024-01-30T06:27:40;9;6;
59153;PMS5003;44935;48.944;9.418;2024-01-30T06:30:07;7;5;
59153;PMS5003;44935;48.944;9.418;2024-01-30T06:32:35;8;6;
59153;PMS5003;44935;48.944;9.418;2024-01-30T06:35:02;9;9;
59153;PMS5003;44935;48.944;9.418;2024-01-30T06:37:30;12;5;
59153;PMS5003;44935;48.944;9.418;2024-01-30T06:39:57;10;8;
59153;PMS5003;44935;48.944;9.418;2024-01-30T06:42:24;7;5;
59153;PMS5003;44935;48.944;9.418;2024-01-30T06:44:51;6;5;
59153;PMS5003;44935;48.944;9.418;2024-01-30T06:47:18;5;5;
59153;PMS5003;44935;48.944;9.418;2024-01-30T06:49:45;6;6;
59153;PMS5003;44935;48.944;9.418;2024-01-30T06:52:12;10;7;
59153;PMS5003;44935;48.944;9.418;2024-01-30T06:54:39;7;7;
59153;PMS5003;44935;48.944;9.418;2024-01-30T06:57:06;6;6;
59153;PMS5003;44935;48.944;9.418;2024-01-30T06:59:33;6;6;
59153;PMS5003;44935;48.944;9.418;2024-01-30T07:01:59;7;6;
59153;PMS5003;44935;48.944;9.418;2024-01-30T07:04:26;6;6;
59153;PMS5003;44935;48.944;9.418;2024-01-30T07:06:53;8;8;
59153;PMS5003;44935;48.944;9.418;2024-01-30T07:09:19;9;9;
59153;PMS5003;44935;48.944;9.418;2024-01-30T07:11:46;10;9;
59153;PMS5003;44935;48.944;9.418;2024-01-30T07:14:13;8;5;
59153;PMS5003;44935;48.944;9.418;2024-01-30T07:16:40;8;6;
59153;PMS5003;44935;48.944;9.418;2024-01-30T07:19:07;4;4;
59153;PMS5003;44935;48.944;9.418;2024-01-30T07:21:34;5;5;
59153;PMS5003;44935;48.944;9.418;2024-01-30T07:24:01;10;9;
59153;PMS5003;44935;48.944;9.418;2024-01-30T07:26:28;5;4;
59153;PMS5003;44935;48.944;9.418;2024-01-30T07:28:55;8;8;
59153;PMS5003;44935;48.944;9.418;2024-01-30T07:31:22;6;4;
59153;PMS5003;44935;48.944;9.418;2024-01-30T07:33:49;5;5;
59153;PMS5003;44935;48.944;9.418;2024-01-30T07:36:15;8;8;
59153;PMS5003;44935;48.944;9.418;2024-01-30T07:38:42;5;5;
59153;PMS5003;44935;48.944;9.418;2024-01-30T07:41:09;7;5;
59153;PMS5003;44935;48.944;9.418;2024-01-30T07:43:36;13;10;
59153;PMS5003;44935;48.944;9.418;2024-01-30T07:46:04;5;5;
59153;PMS5003;44935;48.944;9.418;2024-01-30T07:48:31;6;6;
59153;PMS5003;44935;48.944;9.418;2024-01-30T07:50:58;6;6;
59153;PMS5003;44935;48.944;9.418;2024-01-30T07:53:26;4;4;
59153;PMS5003;44935;48.944;9.418;2024-01-30T07:55:53;6;4;
59153;PMS5003;44935;48.944;9.418;2024-01-30T07:58:20;3;3;
59153;PMS5003;44935;48.944;9.418;2024-01-30T08:00:47;7;6;
59153;PMS5003;44935;48.944;9.418;2024-01-30T08:03:14;6;6;
59153;PMS5003;44935;48.944;9.418;2024-01-30T08:05:41;7;5;
59153;PMS5003;44935;48.944;9.418;2024-01-30T08:08:08;8;8;
59153;PMS5003;44935;48.944;9.418;2024-01-30T08:10:35;5;4;
59153;PMS5003;44935;48.944;9.418;2024-01-30T08:13:02;6;6;
59153;PMS5003;44935;48.944;9.418;2024-01-30T08:15:28;4;4;
59153;PMS5003;44935;48.944;9.418;2024-01-30T08:17:55;3;3;
59153;PMS5003;44935;48.944;9.418;2024-01-30T08:20:22;4;3;
59153;PMS5003;44935;48.944;9.418;2024-01-30T08:22:49;6;6;
59153;PMS5003;44935;48.944;9.418;2024-01-30T08:25:16;8;3;
59153;PMS5003;44935;48.944;9.418;2024-01-30T08:27:43;5;4;
59153;PMS5003;44935;48.944;9.418;2024-01-30T08:30:10;5;4;
59153;PMS5003;44935;48.944;9.418;2024-01-30T08:32:38;5;5;
59153;PMS5003;44935;48.944;9.418;2024-01-30T08:35:05;5;5;
59153;PMS5003;44935;48.944;9.418;2024-01-30T08:37:32;6;5;
59153;PMS5003;44935;48.944;9.418;2024-01-30T08:39:59;4;4;
59153;PMS5003;44935;48.944;9.418;2024-01-30T08:42:27;6;4;
59153;PMS5003;44935;48.944;9.418;2024-01-30T08:44:54;6;6;
59153;PMS5003;44935;48.944;9.418;2024-01-30T08:47:21;7;5;
59153;PMS5003;44935;48.944;9.418;2024-01-30T08:49:48;5;5;
59153;PMS5003;44935;48.944;9.418;2024-01-30T08:52:14;5;5;
59153;PMS5003;44935;48.944;9.418;2024-01-30T08:54:41;5;5;
59153;PMS5003;44935;48.944;9.418;2024-01-30T08:57:08;5;5;
59153;PMS5003;44935;48.944;9.418;2024-01-30T08:59:35;6;5;
59153;PMS5003;44935;48.944;9.418;2024-01-30T09:02:02;6;6;
59153;PMS5003;44935;48.944;9.418;2024-01-30T09:04:30;9;7;
59153;PMS5003;44935;48.944;9.418;2024-01-30T09:06:57;4;4;
59153;PMS5003;44935;48.944;9.418;2024-01-30T09:09:24;11;8;
59153;PMS5003;44935;48.944;9.418;2024-01-30T09:11:51;7;5;
59153;PMS5003;44935;48.944;9.418;2024-01-30T09:14:17;7;5;
59153;PMS5003;44935;48.944;9.418;2024-01-30T09:16:44;7;6;
59153;PMS5003;44935;48.944;9.418;2024-01-30T09:19:11;8;7;
59153;PMS5003;44935;48.944;9.418;2024-01-30T09:21:38;7;6;
59153;PMS5003;44935;48.944;9.418;2024-01-30T09:24:05;8;8;
59153;PMS5003;44935;48.944;9.418;2024-01-30T09:26:32;9;8;
59153;PMS5003;44935;48.944;9.418;2024-01-30T09:28:59;7;7;
59153;PMS5003;44935;48.944;9.418;2024-01-30T09:31:26;10;8;
59153;PMS5003;44935;48.944;9.418;2024-01-30T09:33:53;11;8;
59153;PMS5003;44935;48.944;9.418;2024-01-30T09:36:20;9;7;
59153;PMS5003;44935;48.944;9.418;2024-01-30T09:38:48;4;4;
59153;PMS5003;44935;48.944;9.418;2024-01-30T09:41:14;6;6;
59153;PMS5003;44935;48.944;9.418;2024-01-30T09:43:45;6;5;
59153;PMS5003;44935;48.944;9.418;2024-01-30T09:46:14;5;5;
59153;PMS5003;44935;48.944;9.418;2024-01-30T09:48:43;11;11;
59153;PMS5003;44935;48.944;9.418;2024-01-30T09:51:12;11;11;
59153;PMS5003;44935;48.944;9.418;2024-01-30T09:53:42;8;6;
59153;PMS5003;44935;48.944;9.418;2024-01-30T09:56:09;11;8;
59153;PMS5003;44935;48.944;9.418;2024-01-30T09:58:36;12;9;
59153;PMS5003;44935;48.944;9.418;2024-01-30T10:01:04;6;6;
59153;PMS5003;44935;48.944;9.418;2024-01-30T10:03:31;11;10;
59153;PMS5003;44935;48.944;9.418;2024-01-30T10:05:58;9;7;
59153;PMS5003;44935;48.944;9.418;2024-01-30T10:08:26;7;7;
59153;PMS5003;44935;48.944;9.418;2024-01-30T10:10:53;9;9;
59153;PMS5003;44935;48.944;9.418;2024-01-30T10:13:20;8;8;
59153;PMS5003;44935;48.944;9.418;2024-01-30T10:15:48;6;6;
59153;PMS5003;44935;48.944;9.418;2024-01-30T10:18:14;6;5;
59153;PMS5003;44935;48.944;9.418;2024-01-30T10:20:41;6;5;
59153;PMS5003;44935;48.944;9.418;2024-01-30T10:23:08;7;6;
59153;PMS5003;44935;48.944;9.418;2024-01-30T10:25:36;12;11;
59153;PMS5003;44935;48.944;9.418;2024-01-30T10:28:04;11;9;
59153;PMS5003;44935;48.944;9.418;2024-01-30T10:30:31;7;7;
59153;PMS5003;44935;48.944;9.418;2024-01-30T10:32:58;12;8;
59153;PMS5003;44935;48.944;9.418;2024-01-30T10:35:25;11;10;
59153;PMS5003;44935;48.944;9.418;2024-01-30T10:37:52;12;10;
59153;PMS5003;44935;48.944;9.418;2024-01-30T10:40:23;8;7;
59153;PMS5003;44935;48.944;9.418;2024-01-30T10:42:54;9;7;
59153;PMS5003;44935;48.944;9.418;2024-01-30T10:45:23;6;6;
59153;PMS5003;44935;48.944;9.418;2024-01-30T10:47:53;7;7;
59153;PMS5003;44935;48.944;9.418;2024-01-30T10:50:21;8;7;
59153;PMS5003;44935;48.944;9.418;2024-01-30T10:52:50;11;9;
59153;PMS5003;44935;48.944;9.418;2024-01-30T10:55:18;4;4;
59153;PMS5003;44935;48.944;9.418;2024-01-30T10:57:48;8;8;
59153;PMS5003;44935;48.944;9.418;2024-01-30T11:00:14;12;10;
59153;PMS5003;44935;48.944;9.418;2024-01-30T11:02:43;7;7;
59153;PMS5003;44935;48.944;9.418;2024-01-30T11:05:11;7;4;
59153;PMS5003;44935;48.944;9.418;2024-01-30T11:07:39;8;7;
59153;PMS5003;44935;48.944;9.418;2024-01-30T11:10:07;6;6;
59153;PMS5003;44935;48.944;9.418;2024-01-30T11:12:37;6;4;
59153;PMS5003;44935;48.944;9.418;2024-01-30T11:15:06;7;6;
59153;PMS5003;44935;48.944;9.418;2024-01-30T11:17:41;10;7;
59153;PMS5003;44935;48.944;9.418;2024-01-30T11:20:09;6;6;
59153;PMS5003;44935;48.944;9.418;2024-01-30T11:22:37;5;5;
59153;PMS5003;44935;48.944;9.418;2024-01-30T11:25:04;4;4;
59153;PMS5003;44935;48.944;9.418;2024-01-30T11:27:31;6;6;
59153;PMS5003;44935;48.944;9.418;2024-01-30T11:30:01;7;5;
59153;PMS5003;44935;48.944;9.418;2024-01-30T11:32:28;6;5;
59153;PMS5003;44935;48.944;9.418;2024-01-30T11:34:55;5;5;
59153;PMS5003;44935;48.944;9.418;2024-01-30T11:37:24;12;7;
59153;PMS5003;44935;48.944;9.418;2024-01-30T11:39:52;7;7;
59153;PMS5003;44935;48.944;9.418;2024-01-30T11:42:22;6;5;
59153;PMS5003;44935;48.944;9.418;2024-01-30T11:44:50;6;6;
59153;PMS5003;44935;48.944;9.418;2024-01-30T11:47:17;5;5;
59153;PMS5003;44935;48.944;9.418;2024-01-30T11:49:44;6;6;
59153;PMS5003;44935;48.944;9.418;2024-01-30T11:52:11;8;6;
59153;PMS5003;44935;48.944;9.418;2024-01-30T11:54:40;8;6;
59153;PMS5003;44935;48.944;9.418;2024-01-30T11:57:06;5;5;
59153;PMS5003;44935;48.944;9.418;2024-01-30T11:59:33;4;4;
59153;PMS5003;44935;48.944;9.418;2024-01-30T12:02:00;5;4;
59153;PMS5003;44935;48.944;9.418;2024-01-30T12:04:28;7;5;
59153;PMS5003;44935;48.944;9.418;2024-01-30T12:06:55;13;9;
59153;PMS5003;44935;48.944;9.418;2024-01-30T12:09:22;5;5;
59153;PMS5003;44935;48.944;9.418;2024-01-30T12:11:49;6;4;
59153;PMS5003;44935;48.944;9.418;2024-01-30T12:14:16;5;3;
59153;PMS5003;44935;48.944;9.418;2024-01-30T12:16:47;6;5;
59153;PMS5003;44935;48.944;9.418;2024-01-30T12:19:21;9;4;
59153;PMS5003;44935;48.944;9.418;2024-01-30T12:21:53;6;5;
59153;PMS5003;44935;48.944;9.418;2024-01-30T12:24:20;6;4;
59153;PMS5003;44935;48.944;9.418;2024-01-30T12:26:48;5;4;
59153;PMS5003;44935;48.944;9.418;2024-01-30T12:29:15;4;3;
59153;PMS5003;44935;48.944;9.418;2024-01-30T12:31:42;4;4;
59153;PMS5003;44935;48.944;9.418;2024-01-30T12:34:08;3;3;
59153;PMS5003;44935;48.944;9.418;2024-01-30T12:36:35;4;4;
59153;PMS5003;44935;48.944;9.418;2024-01-30T12:39:02;3;3;
59153;PMS5003;44935;48.944;9.418;2024-01-30T12:41:29;5;4;
59153;PMS5003;44935;48.944;9.418;2024-01-30T12:43:57;7;5;
59153;PMS5003;44935;48.944;9.418;2024-01-30T12:46:25;4;4;
59153;PMS5003;44935;48.944;9.418;2024-01-30T12:48:54;5;4;
59153;PMS5003;44935;48.944;9.418;2024-01-30T12:51:21;4;4;
59153;PMS5003;44935;48.944;9.418;2024-01-30T12:53:47;4;4;
59153;PMS5003;44935;48.944;9.418;2024-01-30T12:56:15;3;2;
59153;PMS5003;44935;48.944;9.418;2024-01-30T12:58:42;7;6;
59153;PMS5003;44935;48.944;9.418;2024-01-30T13:01:09;7;6;
59153;PMS5003;44935;48.944;9.418;2024-01-30T13:03:36;6;4;
59153;PMS5003;44935;48.944;9.418;2024-01-30T13:06:03;4;4;
59153;PMS5003;44935;48.944;9.418;2024-01-30T13:08:29;5;3;
59153;PMS5003;44935;48.944;9.418;2024-01-30T13:10:56;3;2;
59153;PMS5003;44935;48.944;9.418;2024-01-30T13:13:23;2;2;
59153;PMS5003;44935;48.944;9.418;2024-01-30T13:15:50;2;2;
59153;PMS5003;44935;48.944;9.418;2024-01-30T13:18:17;1;1;
59153;PMS5003;44935;48.944;9.418;2024-01-30T13:20:44;3;3;
59153;PMS5003;44935;48.944;9.418;2024-01-30T13:23:11;3;3;
59153;PMS5003;44935;48.944;9.418;2024-01-30T13:25:38;3;3;
59153;PMS5003;44935;48.944;9.418;2024-01-30T13:28:05;4;3;
59153;PMS5003;44935;48.944;9.418;2024-01-30T13:30:31;3;3;
59153;PMS5003;44935;48.944;9.418;2024-01-30T13:32:58;1;1;
59153;PMS5003;44935;48.944;9.418;2024-01-30T13:35:25;3;2;
59153;PMS5003;44935;48.944;9.418;2024-01-30T13:37:52;0;0;
59153;PMS5003;44935;48.944;9.418;2024-01-30T13:40:19;4;3;
59153;PMS5003;44935;48.944;9.418;2024-01-30T13:42:46;2;2;
59153;PMS5003;44935;48.944;9.418;2024-01-30T13:45:13;2;2;
59153;PMS5003;44935;48.944;9.418;2024-01-30T13:47:40;2;2;
59153;PMS5003;44935;48.944;9.418;2024-01-30T13:50:07;3;2;
59153;PMS5003;44935;48.944;9.418;2024-01-30T13:52:34;1;1;
59153;PMS5003;44935;48.944;9.418;2024-01-30T13:55:01;3;2;
59153;PMS5003;44935;48.944;9.418;2024-01-30T13:57:28;4;3;
59153;PMS5003;44935;48.944;9.418;2024-01-30T13:59:55;4;3;
59153;PMS5003;44935;48.944;9.418;2024-01-30T14:02:21;4;2;
59153;PMS5003;44935;48.944;9.418;2024-01-30T14:04:48;7;7;
59153;PMS5003;44935;48.944;9.418;2024-01-30T14:07:16;1;1;
59153;PMS5003;44935;48.944;9.418;2024-01-30T14:09:43;0;0;
59153;PMS5003;44935;48.944;9.418;2024-01-30T14:12:09;2;2;
59153;PMS5003;44935;48.944;9.418;2024-01-30T14:14:36;3;3;
59153;PMS5003;44935;48.944;9.418;2024-01-30T14:17:03;2;2;
59153;PMS5003;44935;48.944;9.418;2024-01-30T14:19:30;0;0;
59153;PMS5003;44935;48.944;9.418;2024-01-30T14:21:57;3;3;
59153;PMS5003;44935;48.944;9.418;2024-01-30T14:24:24;2;2;
59153;PMS5003;44935;48.944;9.418;2024-01-30T14:26:52;3;3;
59153;PMS5003;44935;48.944;9.418;2024-01-30T14:29:19;6;4;
59153;PMS5003;44935;48.944;9.418;2024-01-30T14:31:46;2;2;
59153;PMS5003;44935;48.944;9.418;2024-01-30T14:34:13;1;1;
59153;PMS5003;44935;48.944;9.418;2024-01-30T14:36:39;1;1;
59153;PMS5003;44935;48.944;9.418;2024-01-30T14:39:06;2;1;
59153;PMS5003;44935;48.944;9.418;2024-01-30T14:41:33;2;0;
59153;PMS5003;44935;48.944;9.418;2024-01-30T14:44:00;1;1;
59153;PMS5003;44935;48.944;9.418;2024-01-30T14:46:27;3;3;
59153;PMS5003;44935;48.944;9.418;2024-01-30T14:48:54;1;1;
59153;PMS5003;44935;48.944;9.418;2024-01-30T14:51:21;2;2;
59153;PMS5003;44935;48.944;9.418;2024-01-30T14:53:48;5;2;
59153;PMS5003;44935;48.944;9.418;2024-01-30T14:56:15;1;1;
59153;PMS5003;44935;48.944;9.418;2024-01-30T14:58:42;2;2;
59153;PMS5003;44935;48.944;9.418;2024-01-30T15:01:09;1;1;
59153;PMS5003;44935;48.944;9.418;2024-01-30T15:03:36;1;1;
59153;PMS5003;44935;48.944;9.418;2024-01-30T15:06:03;1;1;
59153;PMS5003;44935;48.944;9.418;2024-01-30T15:08:30;0;0;
59153;PMS5003;44935;48.944;9.418;2024-01-30T15:10:58;3;2;
59153;PMS5003;44935;48.944;9.418;2024-01-30T15:13:25;1;1;
59153;PMS5003;44935;48.944;9.418;2024-01-30T15:15:52;1;1;
59153;PMS5003;44935;48.944;9.418;2024-01-30T15:18:18;1;1;
59153;PMS5003;44935;48.944;9.418;2024-01-30T15:20:45;1;1;
59153;PMS5003;44935;48.944;9.418;2024-01-30T15:23:12;4;2;
59153;PMS5003;44935;48.944;9.418;2024-01-30T15:25:39;0;0;
59153;PMS5003;44935;48.944;9.418;2024-01-30T15:28:06;1;1;
59153;PMS5003;44935;48.944;9.418;2024-01-30T15:30:33;3;3;
59153;PMS5003;44935;48.944;9.418;2024-01-30T15:33:00;2;2;
59153;PMS5003;44935;48.944;9.418;2024-01-30T15:35:27;1;1;
59153;PMS5003;44935;48.944;9.418;2024-01-30T15:37:53;5;3;
59153;PMS5003;44935;48.944;9.418;2024-01-30T15:40:20;2;2;
59153;PMS5003;44935;48.944;9.418;2024-01-30T15:42:47;3;2;
59153;PMS5003;44935;48.944;9.418;2024-01-30T15:45:14;2;2;
59153;PMS5003;44935;48.944;9.418;2024-01-30T15:47:41;1;1;
59153;PMS5003;44935;48.944;9.418;2024-01-30T15:50:08;1;1;
59153;PMS5003;44935;48.944;9.418;2024-01-30T15:52:38;1;1;
59153;PMS5003;44935;48.944;9.418;2024-01-30T15:55:05;5;4;
59153;PMS5003;44935;48.944;9.418;2024-01-30T15:57:32;2;2;
59153;PMS5003;44935;48.944;9.418;2024-01-30T15:59:59;2;2;
59153;PMS5003;44935;48.944;9.418;2024-01-30T16:02:26;1;1;
59153;PMS5003;44935;48.944;9.418;2024-01-30T16:04:53;4;4;
59153;PMS5003;44935;48.944;9.418;2024-01-30T16:07:20;4;3;
59153;PMS5003;44935;48.944;9.418;2024-01-30T16:09:47;3;3;
59153;PMS5003;44935;48.944;9.418;2024-01-30T16:12:14;4;2;
59153;PMS5003;44935;48.944;9.418;2024-01-30T16:14:41;1;1;
59153;PMS5003;44935;48.944;9.418;2024-01-30T16:17:08;4;3;
59153;PMS5003;44935;48.944;9.418;2024-01-30T16:19:35;3;3;
59153;PMS5003;44935;48.944;9.418;2024-01-30T16:22:02;5;3;
59153;PMS5003;44935;48.944;9.418;2024-01-30T16:24:29;2;1;
59153;PMS5003;44935;48.944;9.418;2024-01-30T16:26:56;3;3;
59153;PMS5003;44935;48.944;9.418;2024-01-30T16:29:23;4;3;
59153;PMS5003;44935;48.944;9.418;2024-01-30T16:31:50;5;5;
59153;PMS5003;44935;48.944;9.418;2024-01-30T16:34:17;2;2;
59153;PMS5003;44935;48.944;9.418;2024-01-30T16:36:44;4;4;
59153;PMS5003;44935;48.944;9.418;2024-01-30T16:39:11;4;2;
59153;PMS5003;44935;48.944;9.418;2024-01-30T16:41:38;5;3;
59153;PMS5003;44935;48.944;9.418;2024-01-30T16:44:06;3;2;
59153;PMS5003;44935;48.944;9.418;2024-01-30T16:46:32;4;3;
59153;PMS5003;44935;48.944;9.418;2024-01-30T16:49:00;3;3;
59153;PMS5003;44935;48.944;9.418;2024-01-30T16:51:27;2;2;